Kissimmee, FL

5:08 PM EDT on July 29, 2016 (GMT -0400)
Deerwood Estates, Poinciana Fl. | | Change Station

Elev 79 ft 28.16 °N, 81.48 °W | Updated 28 seconds ago

Overcast
Overcast
86.5 °F
Feels Like 97 °F
N
4.5
Wind Variable Wind from SE
Gusts 8.3 mph

Today
High -- | Low -- °F
--% Chance of Precip.
Yesterday
High -- | Low -- °F
Precip. -- in
Pressure 30.06 in
Visibility 10.0 miles
Clouds Scattered Clouds 4500 ft
Mostly Cloudy 8000 ft
Overcast 11000 ft
Heat Index 97 °F
Dew Point 76 °F
Humidity 71%
Rainfall 0.00 in
Snow Depth Not available.
6:46 AM 8:17 PM
Waning Crescent, 19% visible
METAR KISM 292056Z 01008KT 10SM VCTS SCT045 BKN080 OVC110 28/22 A3005 RMK AO2 LTG DSNT ALQDS SLP177 60000 T02830222 53003
Pressure 30.06 in
Visibility 10.0 miles
Clouds Scattered Clouds 4500 ft
Mostly Cloudy 8000 ft
Overcast 11000 ft
Heat Index 97 °F
Dew Point 76 °F
Humidity 71%
Rainfall 0.00 in
Snow Depth Not available.
6:46 AM 8:17 PM
Waning Crescent, 19% visible
METAR KISM 292056Z 01008KT 10SM VCTS SCT045 BKN080 OVC110 28/22 A3005 RMK AO2 LTG DSNT ALQDS SLP177 60000 T02830222 53003

10-Day Weather Forecast

Almanac

Astronomy

Jul. 29, 2016 Rise Set
Actual Time
Civil Twilight
Nautical Twilight
Astronomical Twilight
Moon
Length of Visible Light
Length of Day
Tomorrow will be .
, % of the Moon is Illuminated

Today's Extremes

State Highs State Lows

Community

WunderPhotos

Upload Photos

1,928,416 photos uploaded!

WunderBlog® & News

Nearby

Air Quality

  Air Quality AQ Index Pollutant
Not available.

Snow Depth

Station Depth Elevation

Earthquake Activity

City Distance Mag. Time & Date
Minimum magnitude displayed is 2.5.

Coastal Water Temperatures

Place Temperature

Stations

Nearby Weather Stations

Station Location Temp. Windchill Dew Point Humidity Wind Precip. Elev Updated Type
                   

Watches & Warnings

There are currently no watches in effect.